createdAt,value
2018-05-13T00:00:37.132Z,0.00
2018-05-13T00:01:37.119Z,0.00
2018-05-13T00:02:37.106Z,0.00
2018-05-13T00:03:37.101Z,0.00
2018-05-13T00:04:37.079Z,0.00
2018-05-13T00:05:37.064Z,0.00
2018-05-13T00:06:37.052Z,0.00
2018-05-13T00:07:37.039Z,0.00
2018-05-13T00:08:37.025Z,0.00
2018-05-13T00:09:37.013Z,0.00
2018-05-13T00:10:36.999Z,0.00
2018-05-13T00:11:36.985Z,0.00
2018-05-13T00:12:36.972Z,0.00
2018-05-13T00:13:36.958Z,0.00
2018-05-13T00:14:36.944Z,0.00
2018-05-13T00:15:36.933Z,0.00
2018-05-13T00:16:36.916Z,0.00
2018-05-13T00:17:36.910Z,0.00
2018-05-13T00:18:36.891Z,0.00
2018-05-13T00:19:36.874Z,0.00
2018-05-13T00:20:36.863Z,0.00
2018-05-13T00:21:36.851Z,0.00
2018-05-13T00:22:36.837Z,0.00
2018-05-13T00:23:36.822Z,0.00
2018-05-13T00:24:36.809Z,0.00
2018-05-13T00:25:36.793Z,0.00
2018-05-13T00:26:36.783Z,0.00
2018-05-13T00:27:36.790Z,0.00
2018-05-13T00:28:36.755Z,0.00
2018-05-13T00:29:36.740Z,0.00
2018-05-13T00:30:36.729Z,0.00
2018-05-13T00:31:36.718Z,0.00
2018-05-13T00:32:36.707Z,0.00
2018-05-13T00:33:36.694Z,0.00
2018-05-13T00:34:36.673Z,0.00
2018-05-13T00:35:36.679Z,0.00
2018-05-13T00:36:36.654Z,0.00
2018-05-13T00:37:36.635Z,0.00
2018-05-13T00:38:36.626Z,0.00
2018-05-13T00:39:36.606Z,0.00
2018-05-13T00:40:36.651Z,0.00
2018-05-13T00:41:36.577Z,0.00
2018-05-13T00:42:36.563Z,0.00
2018-05-13T00:43:36.550Z,0.00
2018-05-13T00:44:36.551Z,0.00
2018-05-13T00:45:36.519Z,0.00
2018-05-13T00:46:36.511Z,0.00
2018-05-13T00:47:36.497Z,0.00
2018-05-13T00:48:36.479Z,0.00
2018-05-13T00:49:36.468Z,0.00
2018-05-13T00:50:36.485Z,0.00
2018-05-13T00:51:36.440Z,0.00
2018-05-13T00:52:36.426Z,0.00
2018-05-13T00:53:36.412Z,0.00
2018-05-13T00:54:36.401Z,0.00
2018-05-13T00:55:36.385Z,0.00
2018-05-13T00:56:36.428Z,0.00
2018-05-13T00:57:36.359Z,0.00
2018-05-13T00:58:36.348Z,0.00
2018-05-13T00:59:36.333Z,0.00
2018-05-13T01:00:36.315Z,0.00
2018-05-13T01:01:36.301Z,0.00
2018-05-13T01:02:36.289Z,0.00
2018-05-13T01:03:36.285Z,0.00
2018-05-13T01:04:36.263Z,0.00
2018-05-13T01:05:36.246Z,0.00
2018-05-13T01:06:36.236Z,0.00
2018-05-13T01:07:36.222Z,0.00
2018-05-13T01:08:36.205Z,0.00
2018-05-13T01:09:36.194Z,0.00
2018-05-13T01:10:36.188Z,0.00
2018-05-13T01:11:36.165Z,0.00
2018-05-13T01:12:36.150Z,0.00
2018-05-13T01:13:36.138Z,0.00
2018-05-13T01:14:36.124Z,0.00
2018-05-13T01:15:36.116Z,0.00
2018-05-13T01:16:36.094Z,0.00
2018-05-13T01:17:36.084Z,0.00
2018-05-13T01:18:36.108Z,0.00
2018-05-13T01:19:36.053Z,0.00
2018-05-13T01:20:36.040Z,0.00
2018-05-13T01:21:36.026Z,0.00
2018-05-13T01:22:36.013Z,0.00
2018-05-13T01:23:35.997Z,0.00
2018-05-13T01:24:35.986Z,0.00
2018-05-13T01:25:35.972Z,0.00
2018-05-13T01:26:35.957Z,0.00
2018-05-13T01:27:35.943Z,0.00
2018-05-13T01:28:35.929Z,0.00
2018-05-13T01:29:35.917Z,0.00
2018-05-13T01:30:35.906Z,0.00
2018-05-13T01:31:35.892Z,0.00
2018-05-13T01:32:35.879Z,0.00
2018-05-13T01:33:35.862Z,0.00
2018-05-13T01:34:35.953Z,0.00
2018-05-13T01:35:35.837Z,0.00
2018-05-13T01:36:35.821Z,0.00
2018-05-13T01:37:35.804Z,0.00
2018-05-13T01:38:35.790Z,0.00
2018-05-13T01:39:35.802Z,0.00
2018-05-13T01:40:35.764Z,0.00
2018-05-13T01:41:35.761Z,0.00
2018-05-13T01:42:35.736Z,0.00
2018-05-13T01:43:35.725Z,0.00
2018-05-13T01:44:35.710Z,0.00
2018-05-13T01:45:35.695Z,0.00
2018-05-13T01:46:35.680Z,0.00
2018-05-13T01:47:35.667Z,0.00
2018-05-13T01:48:35.660Z,0.00
2018-05-13T01:49:35.642Z,0.00
2018-05-13T01:50:35.624Z,0.00
2018-05-13T01:51:35.612Z,0.00
2018-05-13T01:52:35.600Z,0.00
2018-05-13T01:53:35.635Z,0.00
2018-05-13T01:54:35.571Z,0.00
2018-05-13T01:55:35.557Z,0.00
2018-05-13T01:56:35.543Z,0.00
2018-05-13T01:57:35.528Z,0.00
2018-05-13T01:58:35.522Z,0.00
2018-05-13T01:59:35.500Z,0.00
2018-05-13T02:00:35.485Z,0.00
2018-05-13T02:01:35.472Z,0.00
2018-05-13T02:02:35.459Z,0.00
2018-05-13T02:03:35.512Z,0.00
2018-05-13T02:04:35.439Z,0.00
2018-05-13T02:05:35.416Z,0.00
2018-05-13T02:06:35.403Z,0.00
2018-05-13T02:07:35.389Z,0.00
2018-05-13T02:08:35.373Z,0.00
2018-05-13T02:09:35.370Z,0.00
2018-05-13T02:10:35.347Z,0.00
2018-05-13T02:11:35.334Z,0.00
2018-05-13T02:12:35.317Z,0.00
2018-05-13T02:13:35.306Z,0.00
2018-05-13T02:14:35.291Z,0.00
2018-05-13T02:15:35.276Z,0.00
2018-05-13T02:16:35.264Z,0.00
2018-05-13T02:17:35.248Z,0.00
2018-05-13T02:18:35.234Z,0.00
2018-05-13T02:19:35.229Z,0.00
2018-05-13T02:20:35.208Z,0.00
2018-05-13T02:21:35.192Z,0.00
2018-05-13T02:22:35.178Z,0.00
2018-05-13T02:23:35.164Z,0.00
2018-05-13T02:24:35.149Z,0.00
2018-05-13T02:25:35.135Z,0.00
2018-05-13T02:26:35.122Z,0.00
2018-05-13T02:27:35.111Z,0.00
2018-05-13T02:28:35.094Z,0.00
2018-05-13T02:29:35.079Z,0.00
2018-05-13T02:30:35.067Z,0.00
2018-05-13T02:31:35.052Z,0.00
2018-05-13T02:32:35.037Z,0.00
2018-05-13T02:33:35.025Z,0.00
2018-05-13T02:34:35.010Z,0.00
2018-05-13T02:35:34.995Z,0.00
2018-05-13T02:36:34.981Z,0.00
2018-05-13T02:37:34.968Z,0.00
2018-05-13T02:38:34.952Z,0.00
2018-05-13T02:39:34.941Z,0.00
2018-05-13T02:40:34.925Z,0.00
2018-05-13T02:41:34.911Z,0.00
2018-05-13T02:42:34.897Z,0.00
2018-05-13T02:43:34.884Z,0.00
2018-05-13T02:44:34.867Z,0.00
2018-05-13T02:45:34.854Z,0.00
2018-05-13T02:46:34.841Z,0.00
2018-05-13T02:47:34.827Z,0.00
2018-05-13T02:48:34.812Z,0.00
2018-05-13T02:49:34.799Z,0.00
2018-05-13T02:50:34.792Z,0.00
2018-05-13T02:51:34.772Z,0.00
2018-05-13T02:52:34.760Z,0.00
2018-05-13T02:53:34.743Z,0.00
2018-05-13T02:54:34.728Z,0.00
2018-05-13T02:55:34.714Z,0.00
2018-05-13T02:56:34.704Z,0.00
2018-05-13T02:57:34.687Z,0.00
2018-05-13T02:58:34.673Z,0.00
2018-05-13T02:59:34.658Z,0.00
2018-05-13T03:00:34.643Z,0.00
2018-05-13T03:01:34.630Z,0.00
2018-05-13T03:02:34.616Z,0.00
2018-05-13T03:03:34.602Z,0.00
2018-05-13T03:04:34.588Z,0.00
2018-05-13T03:05:34.583Z,0.00
2018-05-13T03:06:34.562Z,0.00
2018-05-13T03:07:34.549Z,0.00
2018-05-13T03:08:34.534Z,0.00
2018-05-13T03:09:34.518Z,0.00
2018-05-13T03:10:34.509Z,0.00
2018-05-13T03:11:34.492Z,0.00
2018-05-13T03:12:34.477Z,0.00
2018-05-13T03:13:34.467Z,0.00
2018-05-13T03:14:34.448Z,0.00
2018-05-13T03:15:34.437Z,0.00
2018-05-13T03:16:34.416Z,0.00
2018-05-13T03:17:34.403Z,0.00
2018-05-13T03:18:34.405Z,0.00
2018-05-13T03:19:34.381Z,0.00
2018-05-13T03:20:34.362Z,0.00
2018-05-13T03:21:34.354Z,0.00
2018-05-13T03:22:34.333Z,0.00
2018-05-13T03:23:34.322Z,0.00
2018-05-13T03:24:34.329Z,0.00
2018-05-13T03:25:34.292Z,0.00
2018-05-13T03:26:34.279Z,0.00
2018-05-13T03:27:34.276Z,0.00
2018-05-13T03:28:34.249Z,0.00
2018-05-13T03:29:34.236Z,0.00
2018-05-13T03:30:34.226Z,0.00
2018-05-13T03:31:34.212Z,0.00
2018-05-13T03:32:34.193Z,0.00
2018-05-13T03:33:34.180Z,0.00
2018-05-13T03:34:34.165Z,0.00
2018-05-13T03:35:34.152Z,0.00
2018-05-13T03:36:34.141Z,0.00
2018-05-13T03:37:34.123Z,0.00
2018-05-13T03:38:34.106Z,0.00
2018-05-13T03:39:34.094Z,0.00
2018-05-13T03:40:34.080Z,0.00
2018-05-13T03:41:34.070Z,0.00
2018-05-13T03:42:34.051Z,5.63
2018-05-13T03:43:34.038Z,5.63
2018-05-13T03:44:34.023Z,5.63
2018-05-13T03:45:34.010Z,5.63
2018-05-13T03:46:33.996Z,5.63
2018-05-13T03:47:33.981Z,5.63
2018-05-13T03:48:33.968Z,5.63
2018-05-13T03:49:33.954Z,5.63
2018-05-13T03:50:33.939Z,5.63
2018-05-13T03:51:33.924Z,5.63
2018-05-13T03:52:33.912Z,5.63
2018-05-13T03:53:33.897Z,5.63
2018-05-13T03:54:33.886Z,5.63
2018-05-13T03:55:33.870Z,5.63
2018-05-13T03:56:33.863Z,5.63
2018-05-13T03:57:33.841Z,5.63
2018-05-13T03:58:33.827Z,11.25
2018-05-13T03:59:33.815Z,11.25
2018-05-13T04:00:33.798Z,11.25
2018-05-13T04:01:33.804Z,11.25
2018-05-13T04:02:33.769Z,11.25
2018-05-13T04:03:33.756Z,16.88
2018-05-13T04:04:33.743Z,16.88
2018-05-13T04:05:33.731Z,16.88
2018-05-13T04:06:33.723Z,16.88
2018-05-13T04:07:33.706Z,16.88
2018-05-13T04:08:33.687Z,22.50
2018-05-13T04:09:33.674Z,22.50
2018-05-13T04:10:33.660Z,22.50
2018-05-13T04:11:33.646Z,22.50
2018-05-13T04:12:33.635Z,22.50
2018-05-13T04:13:33.619Z,22.50
2018-05-13T04:14:33.605Z,28.13
2018-05-13T04:15:33.591Z,28.13
2018-05-13T04:16:33.580Z,28.13
2018-05-13T04:17:33.564Z,22.50
2018-05-13T04:18:33.549Z,22.50
2018-05-13T04:19:33.537Z,16.88
2018-05-13T04:20:33.521Z,16.88
2018-05-13T04:21:33.507Z,16.88
2018-05-13T04:22:33.496Z,16.88
2018-05-13T04:23:33.481Z,16.88
2018-05-13T04:24:33.493Z,16.88
2018-05-13T04:25:33.453Z,16.88
2018-05-13T04:26:33.439Z,16.88
2018-05-13T04:27:33.430Z,16.88
2018-05-13T04:28:33.412Z,16.88
2018-05-13T04:29:33.396Z,16.88
2018-05-13T04:30:33.392Z,16.88
2018-05-13T04:31:33.368Z,16.88
2018-05-13T04:32:33.358Z,16.88
2018-05-13T04:33:33.340Z,16.88
2018-05-13T04:34:33.376Z,22.50
2018-05-13T04:35:33.314Z,22.50
2018-05-13T04:36:33.298Z,22.50
2018-05-13T04:37:33.286Z,22.50
2018-05-13T04:38:33.273Z,22.50
2018-05-13T04:39:33.258Z,22.50
2018-05-13T04:40:33.252Z,22.50
2018-05-13T04:41:33.231Z,28.13
2018-05-13T04:42:33.216Z,28.13
2018-05-13T04:43:33.203Z,28.13
2018-05-13T04:44:33.189Z,28.13
2018-05-13T04:45:33.174Z,28.13
2018-05-13T04:46:33.161Z,22.50
2018-05-13T04:47:33.149Z,22.50
2018-05-13T04:48:33.132Z,22.50
2018-05-13T04:49:33.123Z,28.13
2018-05-13T04:50:33.106Z,28.13
2018-05-13T04:51:33.094Z,33.75
2018-05-13T04:52:33.079Z,33.75
2018-05-13T04:53:33.067Z,33.75
2018-05-13T04:54:33.053Z,28.13
2018-05-13T04:55:33.042Z,28.13
2018-05-13T04:56:33.022Z,28.13
2018-05-13T04:57:33.008Z,28.13
2018-05-13T04:58:32.995Z,28.13
2018-05-13T04:59:32.981Z,28.13
2018-05-13T05:00:32.965Z,28.13
2018-05-13T05:01:32.964Z,22.50
2018-05-13T05:02:32.938Z,28.13
2018-05-13T05:03:32.924Z,28.13
2018-05-13T05:04:32.909Z,33.75
2018-05-13T05:05:32.897Z,33.75
2018-05-13T05:06:32.887Z,39.38
2018-05-13T05:07:32.869Z,39.38
2018-05-13T05:08:32.854Z,39.38
2018-05-13T05:09:32.839Z,39.38
2018-05-13T05:10:32.827Z,39.38
2018-05-13T05:11:32.812Z,39.38
2018-05-13T05:12:32.797Z,45.00
2018-05-13T05:13:32.789Z,45.00
2018-05-13T05:14:32.790Z,50.63
2018-05-13T05:15:32.764Z,56.25
2018-05-13T05:16:32.889Z,50.63
2018-05-13T05:17:32.728Z,50.63
2018-05-13T05:18:32.722Z,50.63
2018-05-13T05:19:32.749Z,56.25
2018-05-13T05:20:32.685Z,61.88
2018-05-13T05:21:32.678Z,73.13
2018-05-13T05:22:32.662Z,78.75
2018-05-13T05:23:32.645Z,84.38
2018-05-13T05:24:32.630Z,84.38
2018-05-13T05:25:32.624Z,84.38
2018-05-13T05:26:32.604Z,84.38
2018-05-13T05:27:32.588Z,84.38
2018-05-13T05:28:32.574Z,90.00
2018-05-13T05:29:32.558Z,90.00
2018-05-13T05:30:32.544Z,101.25
2018-05-13T05:31:32.534Z,106.88
2018-05-13T05:32:32.526Z,112.50
2018-05-13T05:33:32.506Z,129.38
2018-05-13T05:34:32.491Z,157.50
2018-05-13T05:35:32.476Z,185.63
2018-05-13T05:36:32.463Z,196.88
2018-05-13T05:37:32.457Z,196.88
2018-05-13T05:38:32.435Z,202.50
2018-05-13T05:39:32.421Z,213.75
2018-05-13T05:40:32.408Z,292.50
2018-05-13T05:41:32.395Z,241.88
2018-05-13T05:42:32.392Z,236.25
2018-05-13T05:43:32.367Z,247.50
2018-05-13T05:44:32.356Z,253.13
2018-05-13T05:45:32.339Z,270.00
2018-05-13T05:46:32.326Z,286.88
2018-05-13T05:47:32.313Z,303.75
2018-05-13T05:48:32.302Z,309.38
2018-05-13T05:49:32.287Z,303.75
2018-05-13T05:50:32.274Z,298.13
2018-05-13T05:51:32.260Z,286.88
2018-05-13T05:52:32.247Z,281.25
2018-05-13T05:53:32.238Z,275.63
2018-05-13T05:54:32.225Z,270.00
2018-05-13T05:55:32.209Z,253.13
2018-05-13T05:56:32.198Z,241.88
2018-05-13T05:57:32.187Z,247.50
2018-05-13T05:58:32.168Z,416.25
2018-05-13T05:59:32.172Z,495.00
2018-05-13T06:00:32.142Z,601.88
2018-05-13T06:01:32.130Z,669.38
2018-05-13T06:02:32.124Z,675.00
2018-05-13T06:03:32.105Z,691.88
2018-05-13T06:04:32.091Z,652.50
2018-05-13T06:05:32.077Z,590.63
2018-05-13T06:06:32.068Z,658.13
2018-05-13T06:07:32.065Z,686.25
2018-05-13T06:08:32.045Z,720.00
2018-05-13T06:09:32.030Z,748.13
2018-05-13T06:10:32.020Z,770.63
2018-05-13T06:11:32.013Z,798.75
2018-05-13T06:12:31.998Z,815.63
2018-05-13T06:13:31.990Z,838.13
2018-05-13T06:14:31.977Z,877.50
2018-05-13T06:15:32.015Z,916.88
2018-05-13T06:16:31.955Z,945.00
2018-05-13T06:17:31.940Z,916.88
2018-05-13T06:18:31.932Z,911.25
2018-05-13T06:19:31.922Z,984.38
2018-05-13T06:20:31.912Z,1001.25
2018-05-13T06:21:32.109Z,1018.13
2018-05-13T06:22:31.891Z,1046.25
2018-05-13T06:23:31.882Z,984.38
2018-05-13T06:24:31.874Z,1006.88
2018-05-13T06:25:31.861Z,1012.50
2018-05-13T06:26:31.851Z,1012.50
2018-05-13T06:27:31.845Z,973.13
2018-05-13T06:28:31.832Z,1074.38
2018-05-13T06:29:31.831Z,1074.38
2018-05-13T06:30:31.819Z,1068.75
2018-05-13T06:31:31.807Z,1068.75
2018-05-13T06:32:31.796Z,1035.00
2018-05-13T06:33:31.787Z,1068.75
2018-05-13T06:34:31.785Z,1203.75
2018-05-13T06:35:31.780Z,1237.50
2018-05-13T06:36:31.761Z,1271.25
2018-05-13T06:37:31.755Z,1271.25
2018-05-13T06:38:31.754Z,1254.38
2018-05-13T06:39:31.795Z,1198.13
2018-05-13T06:40:31.728Z,950.63
2018-05-13T06:41:31.722Z,517.50
2018-05-13T06:42:31.721Z,579.38
2018-05-13T06:43:31.705Z,1119.38
2018-05-13T06:44:31.697Z,759.38
2018-05-13T06:45:31.694Z,663.75
2018-05-13T06:46:31.689Z,573.75
2018-05-13T06:47:31.677Z,534.38
2018-05-13T06:48:31.666Z,545.63
2018-05-13T06:49:31.658Z,556.88
2018-05-13T06:50:31.656Z,838.13
2018-05-13T06:51:31.677Z,708.75
2018-05-13T06:52:31.634Z,708.75
2018-05-13T06:53:31.627Z,984.38
2018-05-13T06:54:31.618Z,871.88
2018-05-13T06:55:31.623Z,697.50
2018-05-13T06:56:31.616Z,663.75
2018-05-13T06:57:31.592Z,641.25
2018-05-13T06:58:31.585Z,618.75
2018-05-13T06:59:31.581Z,714.38
2018-05-13T07:00:31.567Z,725.63
2018-05-13T07:01:31.572Z,680.63
2018-05-13T07:02:31.550Z,675.00
2018-05-13T07:03:31.543Z,765.00
2018-05-13T07:04:31.543Z,1231.88
2018-05-13T07:05:31.526Z,1164.38
2018-05-13T07:06:31.537Z,815.63
2018-05-13T07:07:31.508Z,1057.50
2018-05-13T07:08:31.508Z,742.50
2018-05-13T07:09:31.489Z,748.13
2018-05-13T07:10:31.483Z,748.13
2018-05-13T07:11:31.474Z,900.00
2018-05-13T07:12:31.471Z,945.00
2018-05-13T07:13:31.457Z,1001.25
2018-05-13T07:14:31.454Z,1440.00
2018-05-13T07:15:31.448Z,781.88
2018-05-13T07:16:31.478Z,967.50
2018-05-13T07:17:31.422Z,967.50
2018-05-13T07:18:31.425Z,1541.25
2018-05-13T07:19:31.408Z,1215.00
2018-05-13T07:20:31.405Z,675.00
2018-05-13T07:21:31.405Z,742.50
2018-05-13T07:22:31.452Z,703.13
2018-05-13T07:23:31.374Z,742.50
2018-05-13T07:24:31.365Z,911.25
2018-05-13T07:25:31.355Z,1366.88
2018-05-13T07:26:31.347Z,1676.25
2018-05-13T07:27:31.339Z,1507.50
2018-05-13T07:28:31.329Z,1327.50
2018-05-13T07:29:31.325Z,883.13
2018-05-13T07:30:31.313Z,911.25
2018-05-13T07:31:31.307Z,793.13
2018-05-13T07:32:31.298Z,697.50
2018-05-13T07:33:31.296Z,641.25
2018-05-13T07:34:31.282Z,646.88
2018-05-13T07:35:31.276Z,675.00
2018-05-13T07:36:31.264Z,759.38
2018-05-13T07:37:31.258Z,708.75
2018-05-13T07:38:31.248Z,714.38
2018-05-13T07:39:31.241Z,691.88
2018-05-13T07:40:31.236Z,686.25
2018-05-13T07:41:31.228Z,652.50
2018-05-13T07:42:31.471Z,686.25
2018-05-13T07:43:31.294Z,714.38
2018-05-13T07:44:31.209Z,703.13
2018-05-13T07:45:31.195Z,708.75
2018-05-13T07:46:31.184Z,1366.88
2018-05-13T07:47:31.174Z,1530.00
2018-05-13T07:48:31.173Z,1040.63
2018-05-13T07:49:31.159Z,871.88
2018-05-13T07:50:31.214Z,781.88
2018-05-13T07:51:31.165Z,849.38
2018-05-13T07:52:31.137Z,967.50
2018-05-13T07:53:31.129Z,725.63
2018-05-13T07:54:31.129Z,731.25
2018-05-13T07:55:31.105Z,736.88
2018-05-13T07:56:31.106Z,742.50
2018-05-13T07:57:31.093Z,759.38
2018-05-13T07:58:31.083Z,759.38
2018-05-13T07:59:31.075Z,765.00
2018-05-13T08:00:31.074Z,770.63
2018-05-13T08:01:31.066Z,810.00
2018-05-13T08:02:31.048Z,753.75
2018-05-13T08:03:31.038Z,748.13
2018-05-13T08:04:31.034Z,753.75
2018-05-13T08:05:31.028Z,742.50
2018-05-13T08:06:31.014Z,742.50
2018-05-13T08:07:31.006Z,787.50
2018-05-13T08:08:31.000Z,793.13
2018-05-13T08:09:30.986Z,793.13
2018-05-13T08:10:30.980Z,776.25
2018-05-13T08:11:30.979Z,770.63
2018-05-13T08:12:30.973Z,765.00
2018-05-13T08:13:30.953Z,759.38
2018-05-13T08:14:30.945Z,748.13
2018-05-13T08:15:30.936Z,731.25
2018-05-13T08:16:30.929Z,720.00
2018-05-13T08:17:30.925Z,765.00
2018-05-13T08:18:30.910Z,781.88
2018-05-13T08:19:30.900Z,798.75
2018-05-13T08:20:31.007Z,798.75
2018-05-13T08:21:30.882Z,810.00
2018-05-13T08:22:30.870Z,832.50
2018-05-13T08:23:30.864Z,815.63
2018-05-13T08:24:30.856Z,821.25
2018-05-13T08:25:30.853Z,843.75
2018-05-13T08:26:30.836Z,855.00
2018-05-13T08:27:30.834Z,905.63
2018-05-13T08:28:30.816Z,832.50
2018-05-13T08:29:30.815Z,860.63
2018-05-13T08:30:30.811Z,843.75
2018-05-13T08:31:30.792Z,849.38
2018-05-13T08:32:30.779Z,883.13
2018-05-13T08:33:30.772Z,860.63
2018-05-13T08:34:30.763Z,855.00
2018-05-13T08:35:30.752Z,866.25
2018-05-13T08:36:30.742Z,1085.63
2018-05-13T08:37:30.735Z,950.63
2018-05-13T08:38:30.727Z,916.88
2018-05-13T08:39:30.717Z,877.50
2018-05-13T08:40:30.715Z,888.75
2018-05-13T08:41:30.699Z,900.00
2018-05-13T08:42:30.692Z,877.50
2018-05-13T08:43:30.690Z,939.38
2018-05-13T08:44:30.672Z,916.88
2018-05-13T08:45:30.668Z,900.00
2018-05-13T08:46:30.664Z,900.00
2018-05-13T08:47:30.646Z,871.88
2018-05-13T08:48:30.645Z,866.25
2018-05-13T08:49:30.627Z,871.88
2018-05-13T08:50:30.637Z,877.50
2018-05-13T08:51:30.619Z,894.38
2018-05-13T08:52:30.611Z,894.38
2018-05-13T08:53:30.595Z,866.25
2018-05-13T08:54:30.590Z,1299.38
2018-05-13T08:55:30.580Z,1029.38
2018-05-13T08:56:30.571Z,877.50
2018-05-13T08:57:30.560Z,967.50
2018-05-13T08:58:30.560Z,888.75
2018-05-13T08:59:30.544Z,995.63
2018-05-13T09:00:30.543Z,1220.63
2018-05-13T09:01:30.528Z,1102.50
2018-05-13T09:02:30.529Z,939.38
2018-05-13T09:03:30.510Z,843.75
2018-05-13T09:04:30.502Z,984.38
2018-05-13T09:05:30.493Z,1023.75
2018-05-13T09:06:30.486Z,2227.50
2018-05-13T09:07:30.485Z,2745.00
2018-05-13T09:08:30.580Z,2300.63
2018-05-13T09:09:30.463Z,1541.25
2018-05-13T09:10:30.533Z,973.13
2018-05-13T09:11:30.447Z,995.63
2018-05-13T09:12:30.439Z,1141.88
2018-05-13T09:13:30.430Z,1141.88
2018-05-13T09:14:30.603Z,995.63
2018-05-13T09:15:30.428Z,1006.88
2018-05-13T09:16:30.408Z,933.75
2018-05-13T09:17:30.410Z,916.88
2018-05-13T09:18:30.403Z,978.75
2018-05-13T09:19:30.389Z,855.00
2018-05-13T09:20:30.482Z,877.50
2018-05-13T09:21:30.374Z,973.13
2018-05-13T09:22:30.374Z,905.63
2018-05-13T09:23:30.363Z,950.63
2018-05-13T09:24:30.361Z,961.88
2018-05-13T09:25:30.346Z,860.63
2018-05-13T09:26:30.349Z,973.13
2018-05-13T09:27:30.338Z,1001.25
2018-05-13T09:28:30.326Z,894.38
2018-05-13T09:29:30.327Z,1006.88
2018-05-13T09:30:30.325Z,1074.38
2018-05-13T09:31:30.313Z,1029.38
2018-05-13T09:32:30.300Z,1035.00
2018-05-13T09:33:30.300Z,1125.00
2018-05-13T09:34:30.287Z,1102.50
2018-05-13T09:35:30.277Z,1395.00
2018-05-13T09:36:30.274Z,1136.25
2018-05-13T09:37:30.264Z,1136.25
2018-05-13T09:38:30.257Z,1181.25
2018-05-13T09:39:30.315Z,2700.00
2018-05-13T09:40:30.250Z,2745.00
2018-05-13T09:41:30.239Z,2306.25
2018-05-13T09:42:30.231Z,2761.88
2018-05-13T09:43:30.233Z,3031.88
2018-05-13T09:44:30.219Z,3262.50
2018-05-13T09:45:30.215Z,2536.88
2018-05-13T09:46:30.216Z,1411.88
2018-05-13T09:47:30.217Z,2671.88
2018-05-13T09:48:30.212Z,2700.00
2018-05-13T09:49:30.208Z,1198.13
2018-05-13T09:50:30.199Z,2868.75
2018-05-13T09:51:30.190Z,3166.88
2018-05-13T09:52:30.184Z,1676.25
2018-05-13T09:53:30.181Z,1254.38
2018-05-13T09:54:30.188Z,1496.25
2018-05-13T09:55:30.175Z,1209.38
2018-05-13T09:56:30.171Z,1231.88
2018-05-13T09:57:30.172Z,1698.75
2018-05-13T09:58:30.175Z,1800.00
2018-05-13T09:59:30.162Z,2806.88
2018-05-13T10:00:30.163Z,3127.50
2018-05-13T10:01:30.176Z,3318.75
2018-05-13T10:02:30.156Z,3121.88
2018-05-13T10:03:30.155Z,3065.63
2018-05-13T10:04:30.154Z,2958.75
2018-05-13T10:05:30.164Z,2677.50
2018-05-13T10:06:30.148Z,2587.50
2018-05-13T10:07:30.150Z,2896.88
2018-05-13T10:08:30.146Z,3172.50
2018-05-13T10:09:30.223Z,3099.38
2018-05-13T10:10:30.150Z,2947.50
2018-05-13T10:11:30.147Z,2536.88
2018-05-13T10:12:30.158Z,2446.88
2018-05-13T10:13:30.147Z,2368.13
2018-05-13T10:14:30.147Z,3015.00
2018-05-13T10:15:30.152Z,2199.38
2018-05-13T10:16:30.171Z,2835.00
2018-05-13T10:17:30.192Z,2812.50
2018-05-13T10:18:30.153Z,2317.50
2018-05-13T10:19:30.159Z,2925.00
2018-05-13T10:20:30.154Z,3076.88
2018-05-13T10:21:30.159Z,2986.88
2018-05-13T10:22:30.163Z,3076.88
2018-05-13T10:23:30.161Z,3138.75
2018-05-13T10:24:30.165Z,3459.38
2018-05-13T10:25:30.168Z,3493.13
2018-05-13T10:26:30.172Z,3251.25
2018-05-13T10:27:30.171Z,2958.75
2018-05-13T10:28:30.171Z,3290.63
2018-05-13T10:29:30.188Z,3380.63
2018-05-13T10:30:30.179Z,3380.63
2018-05-13T10:31:30.192Z,3481.88
2018-05-13T10:32:30.193Z,3566.25
2018-05-13T10:33:30.190Z,3054.38
2018-05-13T10:34:30.195Z,2958.75
2018-05-13T10:35:30.195Z,3110.63
2018-05-13T10:36:30.301Z,2823.75
2018-05-13T10:37:30.216Z,2739.38
2018-05-13T10:38:30.208Z,2896.88
2018-05-13T10:39:30.218Z,3093.75
2018-05-13T10:40:30.217Z,2998.13
2018-05-13T10:41:30.225Z,2863.13
2018-05-13T10:42:30.295Z,3009.38
2018-05-13T10:43:30.238Z,3279.38
2018-05-13T10:44:30.230Z,3195.00
2018-05-13T10:45:30.242Z,2801.25
2018-05-13T10:46:30.240Z,2694.38
2018-05-13T10:47:30.246Z,2660.63
2018-05-13T10:48:30.249Z,2430.00
2018-05-13T10:49:30.257Z,2632.50
2018-05-13T10:50:30.258Z,2559.38
2018-05-13T10:51:30.268Z,3313.13
2018-05-13T10:52:30.266Z,3397.50
2018-05-13T10:53:30.287Z,3217.50
2018-05-13T10:54:30.292Z,3015.00
2018-05-13T10:55:30.279Z,3335.63
2018-05-13T10:56:30.339Z,3262.50
2018-05-13T10:57:30.286Z,3245.63
2018-05-13T10:58:30.292Z,3009.38
2018-05-13T10:59:30.297Z,2745.00
2018-05-13T11:00:30.299Z,2778.75
2018-05-13T11:01:30.312Z,2975.63
2018-05-13T11:02:30.319Z,2604.38
2018-05-13T11:03:30.312Z,2733.75
2018-05-13T11:04:30.316Z,2998.13
2018-05-13T11:05:30.322Z,2880.00
2018-05-13T11:06:30.328Z,2846.25
2018-05-13T11:07:30.334Z,2638.13
2018-05-13T11:08:30.334Z,2548.13
2018-05-13T11:09:30.339Z,2638.13
2018-05-13T11:10:30.354Z,2761.88
2018-05-13T11:11:30.352Z,3116.25
2018-05-13T11:12:30.352Z,3127.50
2018-05-13T11:13:30.355Z,2908.13
2018-05-13T11:14:30.361Z,2902.50
2018-05-13T11:15:30.365Z,1378.13
2018-05-13T11:16:30.368Z,1074.38
2018-05-13T11:17:30.379Z,945.00
2018-05-13T11:18:30.397Z,973.13
2018-05-13T11:19:30.384Z,1108.13
2018-05-13T11:20:30.439Z,2790.00
2018-05-13T11:21:30.387Z,2677.50
2018-05-13T11:22:30.402Z,2356.88
2018-05-13T11:23:30.393Z,2565.00
2018-05-13T11:24:30.407Z,2818.13
2018-05-13T11:25:30.398Z,2683.13
2018-05-13T11:26:30.403Z,2581.88
2018-05-13T11:27:30.421Z,2728.13
2018-05-13T11:28:30.407Z,2379.38
2018-05-13T11:29:30.408Z,2643.75
2018-05-13T11:30:30.413Z,2655.00
2018-05-13T11:31:30.421Z,2514.38
2018-05-13T11:32:30.430Z,2407.50
2018-05-13T11:33:30.427Z,2503.13
2018-05-13T11:34:30.447Z,2508.75
2018-05-13T11:35:30.428Z,2469.38
2018-05-13T11:36:30.430Z,2480.63
2018-05-13T11:37:30.440Z,2446.88
2018-05-13T11:38:30.442Z,2368.13
2018-05-13T11:39:30.438Z,2497.50
2018-05-13T11:40:30.440Z,2497.50
2018-05-13T11:41:30.443Z,2396.25
2018-05-13T11:42:30.445Z,1783.13
2018-05-13T11:43:30.458Z,1316.25
2018-05-13T11:44:30.457Z,1237.50
2018-05-13T11:45:30.453Z,1237.50
2018-05-13T11:46:30.511Z,1141.88
2018-05-13T11:47:30.459Z,1158.75
2018-05-13T11:48:30.467Z,1164.38
2018-05-13T11:49:30.463Z,1108.13
2018-05-13T11:50:30.473Z,1012.50
2018-05-13T11:51:30.467Z,905.63
2018-05-13T11:52:30.468Z,900.00
2018-05-13T11:53:30.473Z,928.13
2018-05-13T11:54:30.474Z,900.00
2018-05-13T11:55:30.471Z,950.63
2018-05-13T11:56:30.549Z,1035.00
2018-05-13T11:57:30.479Z,995.63
2018-05-13T11:58:30.478Z,956.25
2018-05-13T11:59:30.473Z,922.50
2018-05-13T12:00:30.488Z,888.75
2018-05-13T12:01:30.475Z,883.13
2018-05-13T12:02:30.491Z,877.50
2018-05-13T12:03:30.468Z,832.50
2018-05-13T12:04:30.466Z,804.38
2018-05-13T12:05:30.466Z,748.13
2018-05-13T12:06:30.469Z,680.63
2018-05-13T12:07:30.483Z,652.50
2018-05-13T12:08:30.474Z,669.38
2018-05-13T12:09:30.459Z,663.75
2018-05-13T12:10:30.455Z,703.13
2018-05-13T12:11:30.455Z,748.13
2018-05-13T12:12:30.461Z,787.50
2018-05-13T12:13:30.450Z,815.63
2018-05-13T12:14:30.457Z,781.88
2018-05-13T12:15:30.446Z,781.88
2018-05-13T12:16:30.445Z,798.75
2018-05-13T12:17:30.447Z,765.00
2018-05-13T12:18:30.437Z,770.63
2018-05-13T12:19:30.439Z,753.75
2018-05-13T12:20:30.430Z,675.00
2018-05-13T12:21:30.441Z,641.25
2018-05-13T12:22:30.425Z,579.38
2018-05-13T12:23:30.423Z,568.13
2018-05-13T12:24:30.419Z,579.38
2018-05-13T12:25:30.415Z,607.50
2018-05-13T12:26:30.410Z,624.38
2018-05-13T12:27:30.424Z,607.50
2018-05-13T12:28:30.408Z,596.25
2018-05-13T12:29:30.411Z,556.88
2018-05-13T12:30:30.417Z,545.63
2018-05-13T12:31:30.398Z,528.75
2018-05-13T12:32:30.399Z,511.88
2018-05-13T12:33:30.394Z,540.00
2018-05-13T12:34:30.388Z,562.50
2018-05-13T12:35:30.392Z,607.50
2018-05-13T12:36:30.383Z,641.25
2018-05-13T12:37:30.394Z,663.75
2018-05-13T12:38:30.374Z,703.13
2018-05-13T12:39:30.365Z,759.38
2018-05-13T12:40:30.367Z,821.25